Terminal Aerodrome Forecast
Issued by NWS

Current Version | Previous Version | Text Only | Print | Product List | Glossary On
Versions: 1 2 3 4 5 6 7 8 9 10 11 12 13 14 15
000
FTUS46 KSEW 141721
TAFHQM
TAF
KHQM 141721Z 1418/1518 05004KT P6SM BKN200
     FM142200 08008KT P6SM OVC180
     FM150800 08006KT P6SM OVC100
     FM151000 08005KT P6SM OVC040
     FM151200 08005KT 5SM -RA BR OVC025
     FM151400 18005KT 5SM -RA BR OVC015
     FM151600 27006KT P6SM -SHRA OVC015=

USA.gov is the U.S. government's official web portal to all federal, state and local government web resources and services.